Levante — 9HOB7 — position and weather

sailwx.info

Track history (hours):
 
Tides and Currents Weather Stations Pressure Air Temp Water Temp Dewpoint Dewpoint Depression Visibility Wind Speed Wind Dir Waves Ship Positions

Levante

Last reported at 2016-Jan-29 07:07 UTC. Time now 2016-Feb-06 07:19 UTC.
Position N 25°24' W 079°40'.
Warning: this ship's position is 8 days out of date.

Length 188.3 m; beam 28 m; draft 10.1 m.

Type: Ship. MMSI: 215440000.

Date/timePositionNaut miles runAvg speedWind from/ knotsBaromVisibWave heightAir tempDewpointWater temp
2016-Jan-29 07:07N 25°24' W 079°40'1711.0
2016-Jan-29 05:33N 25°41' W 079°40'1010.5
2016-Jan-29 04:33N 25°52' W 079°41'10 9.5
2016-Jan-29 03:33N 25°60' W 079°46'1212.0
2016-Jan-29 02:33N 26°04' W 079°59'7 7.3
2016-Jan-29 01:33N 26°05' W 080°07'0 0.3
2016-Jan-29 00:33N 26°05' W 080°07'0 0.0
2016-Jan-28 23:33N 26°05' W 080°07'0 0.0
2016-Jan-28 22:33N 26°05' W 080°07'0 0.0
2016-Jan-28 21:33N 26°05' W 080°07'0 0.0
2016-Jan-28 20:33N 26°05' W 080°07'0 0.0
2016-Jan-28 19:33N 26°05' W 080°07'0 0.0
2016-Jan-28 18:33N 26°05' W 080°07'0 0.0
2016-Jan-28 17:30N 26°05' W 080°07'0 0.0
2016-Jan-28 16:33N 26°05' W 080°07'0 0.0
2016-Jan-28 15:33N 26°05' W 080°07'0 0.0
2016-Jan-28 14:33N 26°05' W 080°07'0 0.0
2016-Jan-28 13:33N 26°05' W 080°07'0 0.0
2016-Jan-28 12:33N 26°05' W 080°07'0 0.0
2016-Jan-28 11:31N 26°05' W 080°07'0 0.0
2016-Jan-28 10:31N 26°05' W 080°07'0 0.0
2016-Jan-28 09:32N 26°05' W 080°07'0 0.0
2016-Jan-28 08:32N 26°05' W 080°07'0 0.0
2016-Jan-28 07:32N 26°05' W 080°07'0 0.4
2016-Jan-28 06:33N 26°05' W 080°07'4 4.1
2016-Jan-28 05:33N 26°06' W 080°02'4 3.9
2016-Jan-28 04:33N 26°07' W 079°58'10 9.6
2016-Jan-28 03:33N 26°09' W 079°48'1212.3
2016-Jan-28 02:33N 26°10' W 079°34'1212.5
2016-Jan-28 01:33N 26°12' W 079°20'  
Track history (hours):
 
Tides and Currents Weather Stations Pressure Air Temp Water Temp Dewpoint Dewpoint Depression Visibility Wind Speed Wind Dir Waves Ship Positions

Levante

Last reported at 2016-Jan-29 07:07 UTC. Time now 2016-Feb-06 07:19 UTC.
Position N 25°24' W 079°40'.
Warning: this ship's position is 8 days out of date.

Length 188.3 m; beam 28 m; draft 10.1 m.

Type: Ship. MMSI: 215440000.

Date/timePositionNaut miles runAvg speedWind from/ knotsBaromVisibWave heightAir tempDewpointWater temp
2016-Jan-29 07:07N 25°24' W 079°40'1711.0
2016-Jan-29 05:33N 25°41' W 079°40'1010.5
2016-Jan-29 04:33N 25°52' W 079°41'10 9.5
2016-Jan-29 03:33N 25°60' W 079°46'1212.0
2016-Jan-29 02:33N 26°04' W 079°59'7 7.3
2016-Jan-29 01:33N 26°05' W 080°07'0 0.3
2016-Jan-29 00:33N 26°05' W 080°07'0 0.0
2016-Jan-28 23:33N 26°05' W 080°07'0 0.0
2016-Jan-28 22:33N 26°05' W 080°07'0 0.0
2016-Jan-28 21:33N 26°05' W 080°07'0 0.0
2016-Jan-28 20:33N 26°05' W 080°07'0 0.0
2016-Jan-28 19:33N 26°05' W 080°07'0 0.0
2016-Jan-28 18:33N 26°05' W 080°07'0 0.0
2016-Jan-28 17:30N 26°05' W 080°07'0 0.0
2016-Jan-28 16:33N 26°05' W 080°07'0 0.0
2016-Jan-28 15:33N 26°05' W 080°07'0 0.0
2016-Jan-28 14:33N 26°05' W 080°07'0 0.0
2016-Jan-28 13:33N 26°05' W 080°07'0 0.0
2016-Jan-28 12:33N 26°05' W 080°07'0 0.0
2016-Jan-28 11:31N 26°05' W 080°07'0 0.0
2016-Jan-28 10:31N 26°05' W 080°07'0 0.0
2016-Jan-28 09:32N 26°05' W 080°07'0 0.0
2016-Jan-28 08:32N 26°05' W 080°07'0 0.0
2016-Jan-28 07:32N 26°05' W 080°07'0 0.4
2016-Jan-28 06:33N 26°05' W 080°07'4 4.1
2016-Jan-28 05:33N 26°06' W 080°02'4 3.9
2016-Jan-28 04:33N 26°07' W 079°58'10 9.6
2016-Jan-28 03:33N 26°09' W 079°48'1212.3
2016-Jan-28 02:33N 26°10' W 079°34'1212.5
2016-Jan-28 01:33N 26°12' W 079°20'  

Dump ship's entire track history